createdAt,value
2022-12-02T00:01:40.601Z,37.73
2022-12-02T00:05:41.927Z,40.03
2022-12-02T00:09:43.878Z,36.83
2022-12-02T00:13:44.920Z,39.47
2022-12-02T00:17:46.098Z,37.70
2022-12-02T00:21:49.517Z,40.17
2022-12-02T00:25:53.325Z,38.10
2022-12-02T00:29:54.566Z,36.83
2022-12-02T00:33:57.514Z,37.10
2022-12-02T00:37:58.920Z,37.73
2022-12-02T00:42:02.538Z,35.33
2022-12-02T00:46:22.205Z,36.30
2022-12-02T00:50:24.315Z,38.30
2022-12-02T00:54:25.530Z,34.97
2022-12-02T00:58:30.294Z,39.10
2022-12-02T01:02:32.421Z,37.43
2022-12-02T01:06:34.083Z,34.40
2022-12-02T01:10:35.412Z,35.20
2022-12-02T01:14:36.819Z,34.93
2022-12-02T01:18:38.076Z,35.63
2022-12-02T01:22:39.605Z,35.60
2022-12-02T01:26:40.539Z,37.30
2022-12-02T01:30:41.757Z,38.37
2022-12-02T01:34:42.692Z,33.97
2022-12-02T01:38:43.900Z,39.97
2022-12-02T01:42:45.738Z,35.70
2022-12-02T01:46:47.110Z,38.83
2022-12-02T01:50:49.228Z,38.73
2022-12-02T01:54:51.728Z,37.70
2022-12-02T01:58:53.630Z,39.17
2022-12-02T02:02:55.729Z,34.97
2022-12-02T02:06:56.605Z,39.80
2022-12-02T02:10:57.551Z,39.07
2022-12-02T02:14:59.047Z,38.60
2022-12-02T02:19:01.813Z,38.03
2022-12-02T02:23:09.971Z,37.73
2022-12-02T02:27:11.173Z,37.30
2022-12-02T02:31:12.528Z,38.60
2022-12-02T02:35:14.208Z,36.10
2022-12-02T02:39:15.391Z,37.83
2022-12-02T02:43:18.646Z,36.90
2022-12-02T02:47:19.813Z,35.77
2022-12-02T02:51:21.272Z,35.87
2022-12-02T02:55:24.644Z,38.70
2022-12-02T02:59:25.893Z,35.70
2022-12-02T03:03:30.828Z,38.57
2022-12-02T03:07:33.329Z,34.17
2022-12-02T03:11:36.209Z,35.50
2022-12-02T03:15:37.686Z,34.03
2022-12-02T03:19:39.574Z,34.67
2022-12-02T03:23:40.902Z,39.93
2022-12-02T03:27:42.437Z,35.87
2022-12-02T03:31:44.737Z,36.20
2022-12-02T03:35:46.309Z,35.93
2022-12-02T03:39:47.937Z,37.30
2022-12-02T03:43:49.422Z,36.10
2022-12-02T03:47:51.309Z,35.77
2022-12-02T03:51:52.622Z,39.70
2022-12-02T03:55:53.874Z,35.50
2022-12-02T03:59:55.496Z,36.77
2022-12-02T04:03:56.836Z,36.33
2022-12-02T04:07:58.147Z,37.07
2022-12-02T04:11:59.144Z,37.27
2022-12-02T04:16:00.483Z,34.77
2022-12-02T04:20:04.350Z,34.47
2022-12-02T04:24:06.098Z,36.07
2022-12-02T04:28:07.400Z,38.97
2022-12-02T04:32:08.391Z,38.33
2022-12-02T04:36:09.581Z,38.73
2022-12-02T04:40:11.681Z,37.50
2022-12-02T04:44:17.884Z,38.10
2022-12-02T04:48:16.047Z,38.60
2022-12-02T04:52:17.261Z,38.83
2022-12-02T04:56:18.509Z,38.00
2022-12-02T05:00:20.324Z,37.40
2022-12-02T05:04:21.602Z,40.70
2022-12-02T05:08:23.041Z,35.37
2022-12-02T05:12:24.410Z,35.27
2022-12-02T05:16:25.698Z,28.97
2022-12-02T05:20:26.998Z,33.47
2022-12-02T05:24:28.253Z,34.60
2022-12-02T05:28:29.564Z,42.80
2022-12-02T05:32:30.715Z,33.87
2022-12-02T05:36:32.008Z,36.70
2022-12-02T05:40:33.674Z,34.87
2022-12-02T05:44:39.451Z,34.50
2022-12-02T05:48:38.044Z,33.03
2022-12-02T05:52:39.242Z,33.23
2022-12-02T05:56:40.470Z,32.70
2022-12-02T06:00:41.715Z,40.05
2022-12-02T06:04:43.194Z,31.10
2022-12-02T06:08:44.300Z,32.07
2022-12-02T06:12:45.659Z,32.40
2022-12-02T06:16:56.707Z,35.67
2022-12-02T06:21:01.554Z,41.55
2022-12-02T06:25:06.779Z,30.33
2022-12-02T06:29:14.843Z,28.40
2022-12-02T06:33:31.219Z,29.17
2022-12-02T06:37:32.569Z,30.60
2022-12-02T06:41:36.787Z,31.63
2022-12-02T06:45:37.988Z,40.58
2022-12-02T06:49:40.085Z,36.30
2022-12-02T06:53:42.701Z,31.10
2022-12-02T06:57:43.896Z,29.27
2022-12-02T07:01:45.590Z,30.33
2022-12-02T07:05:46.846Z,27.97
2022-12-02T07:09:56.794Z,29.80
2022-12-02T07:13:58.701Z,24.23
2022-12-02T07:18:15.165Z,27.87
2022-12-02T07:22:20.377Z,25.23
2022-12-02T07:26:21.621Z,19.23
2022-12-02T07:30:29.281Z,24.03
2022-12-02T07:34:34.236Z,27.27
2022-12-02T07:39:04.206Z,26.47
2022-12-02T07:42:36.115Z,26.97
2022-12-02T07:46:37.388Z,27.83
2022-12-02T07:50:38.786Z,24.27
2022-12-02T07:54:40.083Z,26.33
2022-12-02T07:59:10.091Z,23.73
2022-12-02T08:02:44.113Z,23.50
2022-12-02T08:06:45.349Z,21.73
2022-12-02T08:10:46.553Z,24.67
2022-12-02T08:14:47.562Z,25.77
2022-12-02T08:18:48.573Z,18.97
2022-12-02T08:22:49.853Z,24.13
2022-12-02T08:26:51.052Z,17.70
2022-12-02T08:30:54.081Z,21.80
2022-12-02T08:34:55.115Z,22.37
2022-12-02T08:38:56.187Z,21.17
2022-12-02T08:42:57.192Z,18.87
2022-12-02T08:46:59.014Z,19.60
2022-12-02T08:51:00.296Z,22.23
2022-12-02T08:55:01.932Z,22.40
2022-12-02T08:59:03.126Z,21.30
2022-12-02T09:03:05.699Z,19.77
2022-12-02T09:07:07.397Z,23.77
2022-12-02T09:11:09.006Z,21.43
2022-12-02T09:15:10.752Z,21.03
2022-12-02T09:19:13.502Z,22.53
2022-12-02T09:23:14.726Z,17.90
2022-12-02T09:27:16.392Z,21.93
2022-12-02T09:31:17.590Z,23.53
2022-12-02T09:35:18.804Z,22.03
2022-12-02T09:39:20.125Z,20.50
2022-12-02T09:43:21.279Z,20.20
2022-12-02T09:47:23.365Z,21.40
2022-12-02T09:51:24.586Z,19.97
2022-12-02T09:55:25.914Z,21.17
2022-12-02T09:59:27.500Z,20.77
2022-12-02T10:03:28.706Z,18.50
2022-12-02T10:07:30.066Z,22.77
2022-12-02T10:11:32.833Z,21.00
2022-12-02T10:15:34.007Z,16.27
2022-12-02T10:19:35.652Z,21.57
2022-12-02T10:24:01.068Z,21.23
2022-12-02T10:28:03.773Z,25.67
2022-12-02T10:32:07.982Z,26.63
2022-12-02T10:36:09.906Z,23.13
2022-12-02T10:40:22.693Z,20.30
2022-12-02T10:44:23.622Z,24.87
2022-12-02T10:48:25.147Z,18.70
2022-12-02T10:52:35.929Z,27.60
2022-12-02T10:56:37.173Z,27.63
2022-12-02T11:00:43.681Z,29.50
2022-12-02T11:04:41.267Z,28.27
2022-12-02T11:08:43.725Z,24.23
2022-12-02T11:12:54.515Z,25.67
2022-12-02T11:17:08.167Z,23.07
2022-12-02T11:21:16.062Z,24.63
2022-12-02T11:25:43.837Z,25.73
2022-12-02T11:30:06.763Z,16.63
2022-12-02T11:34:25.987Z,25.03
2022-12-02T11:38:27.356Z,26.30
2022-12-02T11:42:30.650Z,20.23
2022-12-02T11:46:55.521Z,23.70
2022-12-02T11:50:56.643Z,22.37
2022-12-02T11:55:04.926Z,20.33
2022-12-02T11:59:27.557Z,20.03
2022-12-02T12:03:28.957Z,25.10
2022-12-02T12:07:45.665Z,20.23
2022-12-02T12:12:09.163Z,22.07
2022-12-02T12:16:10.219Z,21.53
2022-12-02T12:20:20.849Z,22.73
2022-12-02T12:24:26.099Z,27.40
2022-12-02T12:28:30.714Z,15.10
2022-12-02T12:32:32.412Z,20.63
2022-12-02T12:36:33.763Z,21.20
2022-12-02T12:40:35.239Z,25.97
2022-12-02T12:44:36.811Z,23.13
2022-12-02T12:48:38.413Z,25.47
2022-12-02T12:52:39.369Z,24.87
2022-12-02T12:56:40.321Z,22.77
2022-12-02T13:00:41.512Z,21.93
2022-12-02T13:04:42.484Z,23.03
2022-12-02T13:08:43.533Z,17.87
2022-12-02T13:12:44.651Z,19.27
2022-12-02T13:16:45.857Z,21.23
2022-12-02T13:20:47.236Z,23.60
2022-12-02T13:24:48.190Z,18.37
2022-12-02T13:28:51.269Z,20.93
2022-12-02T13:32:52.467Z,18.17
2022-12-02T13:36:53.459Z,19.77
2022-12-02T13:40:54.710Z,17.27
2022-12-02T13:44:55.648Z,15.07
2022-12-02T13:48:56.826Z,19.67
2022-12-02T13:52:57.925Z,20.50
2022-12-02T13:56:59.041Z,19.00
2022-12-02T14:00:59.997Z,21.87
2022-12-02T14:05:05.927Z,18.87
2022-12-02T14:09:04.143Z,18.90
2022-12-02T14:13:07.034Z,15.67
2022-12-02T14:17:08.680Z,20.17
2022-12-02T14:21:09.656Z,20.60
2022-12-02T14:25:11.088Z,18.90
2022-12-02T14:29:12.408Z,19.87
2022-12-02T14:33:13.712Z,17.57
2022-12-02T14:37:15.552Z,13.43
2022-12-02T14:41:18.094Z,16.93
2022-12-02T14:45:19.301Z,16.40
2022-12-02T14:53:23.850Z,19.20
2022-12-02T14:57:25.178Z,18.17
2022-12-02T15:01:26.321Z,13.53
2022-12-02T15:05:27.652Z,16.90
2022-12-02T15:09:28.671Z,19.30
2022-12-02T15:13:29.945Z,16.60
2022-12-02T15:17:31.220Z,15.30
2022-12-02T15:21:32.353Z,18.97
2022-12-02T15:25:33.504Z,16.17
2022-12-02T15:29:34.635Z,19.07
2022-12-02T15:33:35.740Z,18.70
2022-12-02T15:37:36.881Z,14.17
2022-12-02T15:41:37.982Z,22.00
2022-12-02T15:45:39.764Z,18.73
2022-12-02T15:49:40.789Z,18.03
2022-12-02T15:53:43.731Z,17.20
2022-12-02T15:57:44.961Z,17.03
2022-12-02T16:01:46.297Z,18.13
2022-12-02T16:05:47.370Z,24.27
2022-12-02T16:09:48.439Z,21.10
2022-12-02T16:13:51.412Z,16.83
2022-12-02T16:17:52.552Z,19.47
2022-12-02T16:21:53.731Z,15.73
2022-12-02T16:25:55.049Z,18.27
2022-12-02T16:29:56.112Z,18.13
2022-12-02T16:33:57.383Z,16.27
2022-12-02T16:38:04.123Z,18.03
2022-12-02T16:42:01.407Z,12.47
2022-12-02T16:46:03.209Z,13.63
2022-12-02T16:50:05.393Z,15.10
2022-12-02T16:54:06.973Z,22.25
2022-12-02T16:58:08.141Z,17.53
2022-12-02T17:02:10.460Z,18.13
2022-12-02T17:06:11.553Z,22.32
2022-12-02T17:10:12.619Z,20.70
2022-12-02T17:14:13.641Z,21.52
2022-12-02T17:18:15.046Z,16.93
2022-12-02T17:22:16.276Z,18.63
2022-12-02T17:26:17.335Z,17.40
2022-12-02T17:30:18.715Z,21.87
2022-12-02T17:34:19.935Z,17.10
2022-12-02T17:38:21.385Z,12.70
2022-12-02T17:42:22.682Z,19.50
2022-12-02T17:46:23.982Z,14.37
2022-12-02T17:50:25.104Z,12.93
2022-12-02T17:54:26.293Z,12.77
2022-12-02T17:58:27.433Z,19.48
2022-12-02T18:02:28.722Z,13.53
2022-12-02T18:06:29.838Z,14.80
2022-12-02T18:10:30.931Z,13.90
2022-12-02T18:14:32.333Z,13.27
2022-12-02T18:18:33.783Z,18.77
2022-12-02T18:22:35.016Z,18.00
2022-12-02T18:26:36.024Z,9.07
2022-12-02T18:30:37.068Z,16.57
2022-12-02T18:34:38.353Z,13.67
2022-12-02T18:38:39.678Z,13.03
2022-12-02T18:42:40.586Z,13.83
2022-12-02T18:46:41.658Z,13.53
2022-12-02T18:50:42.712Z,15.17
2022-12-02T18:54:43.686Z,13.27
2022-12-02T18:58:45.933Z,13.72
2022-12-02T19:02:47.102Z,17.00
2022-12-02T19:06:48.015Z,13.23
2022-12-02T19:10:49.005Z,16.33
2022-12-02T19:14:50.169Z,14.80
2022-12-02T19:18:52.323Z,13.37
2022-12-02T19:22:53.658Z,15.70
2022-12-02T19:26:56.654Z,19.47
2022-12-02T19:30:58.223Z,15.77
2022-12-02T19:34:59.757Z,14.20
2022-12-02T19:39:01.807Z,13.30
2022-12-02T19:43:03.058Z,14.97
2022-12-02T19:47:09.557Z,11.37
2022-12-02T19:51:07.282Z,12.57
2022-12-02T19:55:13.697Z,16.90
2022-12-02T19:59:14.926Z,12.47
2022-12-02T20:03:16.196Z,14.90
2022-12-02T20:07:17.561Z,15.47
2022-12-02T20:11:18.724Z,12.07
2022-12-02T20:15:20.207Z,18.47
2022-12-02T20:19:21.499Z,14.23
2022-12-02T20:23:23.129Z,16.37
2022-12-02T20:27:24.143Z,16.07
2022-12-02T20:31:25.354Z,18.67
2022-12-02T20:35:26.725Z,18.13
2022-12-02T20:39:27.830Z,14.97
2022-12-02T20:43:29.005Z,12.37
2022-12-02T20:47:30.325Z,19.03
2022-12-02T20:51:31.721Z,17.83
2022-12-02T20:55:32.930Z,20.07
2022-12-02T20:59:34.382Z,18.73
2022-12-02T21:03:35.634Z,17.40
2022-12-02T21:07:37.924Z,13.93
2022-12-02T21:11:39.122Z,14.77
2022-12-02T21:15:40.464Z,15.63
2022-12-02T21:19:41.800Z,16.47
2022-12-02T21:23:42.902Z,19.17
2022-12-02T21:27:44.250Z,18.83
2022-12-02T21:31:45.327Z,19.60
2022-12-02T21:35:46.370Z,18.47
2022-12-02T21:39:49.124Z,18.17
2022-12-02T21:43:50.402Z,20.57
2022-12-02T21:47:51.516Z,19.47
2022-12-02T21:51:52.759Z,21.60
2022-12-02T21:55:53.790Z,23.20
2022-12-02T21:59:54.782Z,18.80
2022-12-02T22:03:55.923Z,23.87
2022-12-02T22:07:57.012Z,24.60
2022-12-02T22:11:58.076Z,23.53
2022-12-02T22:15:59.155Z,16.57
2022-12-02T22:20:00.435Z,21.87
2022-12-02T22:24:01.912Z,22.93
2022-12-02T22:28:03.486Z,23.27
2022-12-02T22:32:05.444Z,16.63
2022-12-02T22:36:07.326Z,19.33
2022-12-02T22:40:09.537Z,17.43
2022-12-02T22:44:10.896Z,17.87
2022-12-02T22:48:12.231Z,24.17
2022-12-02T22:52:13.386Z,23.20
2022-12-02T22:56:14.419Z,24.10
2022-12-02T23:00:17.554Z,21.53
2022-12-02T23:04:18.818Z,22.77
2022-12-02T23:08:20.330Z,25.57
2022-12-02T23:12:21.322Z,26.10
2022-12-02T23:16:22.700Z,25.63
2022-12-02T23:20:23.892Z,22.77
2022-12-02T23:24:25.225Z,27.97
2022-12-02T23:28:26.832Z,28.17
2022-12-02T23:32:28.500Z,23.20
2022-12-02T23:36:34.904Z,27.63
2022-12-02T23:40:33.116Z,38.27
2022-12-02T23:44:34.420Z,28.87
2022-12-02T23:48:35.386Z,25.57
2022-12-02T23:52:36.636Z,42.45
2022-12-02T23:56:37.908Z,29.20
